sensor_id;sensor_type;location;lat;lon;timestamp;temperature;humidity
5276;DHT22;2661;50.786;12.728;2023-09-07T00:01:33;13.50;99.90
5276;DHT22;2661;50.786;12.728;2023-09-07T00:04:00;13.40;99.90
5276;DHT22;2661;50.786;12.728;2023-09-07T00:06:27;13.40;99.90
5276;DHT22;2661;50.786;12.728;2023-09-07T00:08:53;13.40;99.90
5276;DHT22;2661;50.786;12.728;2023-09-07T00:11:20;13.40;99.90
5276;DHT22;2661;50.786;12.728;2023-09-07T00:13:46;13.40;99.90
5276;DHT22;2661;50.786;12.728;2023-09-07T00:16:13;13.40;99.90
5276;DHT22;2661;50.786;12.728;2023-09-07T00:18:41;13.50;99.90
5276;DHT22;2661;50.786;12.728;2023-09-07T00:21:08;13.50;99.90
5276;DHT22;2661;50.786;12.728;2023-09-07T00:23:35;13.50;99.90
5276;DHT22;2661;50.786;12.728;2023-09-07T00:26:01;13.50;99.90
5276;DHT22;2661;50.786;12.728;2023-09-07T00:28:28;13.60;99.90
5276;DHT22;2661;50.786;12.728;2023-09-07T00:30:56;13.60;99.90
5276;DHT22;2661;50.786;12.728;2023-09-07T00:33:22;13.60;99.90
5276;DHT22;2661;50.786;12.728;2023-09-07T00:35:49;13.60;99.90
5276;DHT22;2661;50.786;12.728;2023-09-07T00:38:15;13.70;1.00
5276;DHT22;2661;50.786;12.728;2023-09-07T00:40:43;13.70;99.90
5276;DHT22;2661;50.786;12.728;2023-09-07T00:43:11;13.70;99.90
5276;DHT22;2661;50.786;12.728;2023-09-07T00:45:38;13.70;99.90
5276;DHT22;2661;50.786;12.728;2023-09-07T00:48:05;13.70;99.90
5276;DHT22;2661;50.786;12.728;2023-09-07T00:50:31;13.70;99.90
5276;DHT22;2661;50.786;12.728;2023-09-07T00:52:59;13.80;99.90
5276;DHT22;2661;50.786;12.728;2023-09-07T00:55:27;13.80;99.90
5276;DHT22;2661;50.786;12.728;2023-09-07T00:57:54;13.80;99.90
5276;DHT22;2661;50.786;12.728;2023-09-07T01:00:21;13.80;99.90
5276;DHT22;2661;50.786;12.728;2023-09-07T01:02:48;13.80;99.90
5276;DHT22;2661;50.786;12.728;2023-09-07T01:05:15;13.70;99.90
5276;DHT22;2661;50.786;12.728;2023-09-07T01:07:49;13.70;99.90
5276;DHT22;2661;50.786;12.728;2023-09-07T01:10:18;13.70;99.90
5276;DHT22;2661;50.786;12.728;2023-09-07T01:12:45;13.70;99.90
5276;DHT22;2661;50.786;12.728;2023-09-07T01:15:11;13.60;99.90
5276;DHT22;2661;50.786;12.728;2023-09-07T01:17:38;13.60;99.90
5276;DHT22;2661;50.786;12.728;2023-09-07T01:20:05;13.60;99.90
5276;DHT22;2661;50.786;12.728;2023-09-07T01:22:33;13.60;99.90
5276;DHT22;2661;50.786;12.728;2023-09-07T01:25:00;13.60;99.90
5276;DHT22;2661;50.786;12.728;2023-09-07T01:27:28;13.60;99.90
5276;DHT22;2661;50.786;12.728;2023-09-07T01:29:55;13.60;99.90
5276;DHT22;2661;50.786;12.728;2023-09-07T01:32:22;13.60;99.90
5276;DHT22;2661;50.786;12.728;2023-09-07T01:34:48;13.60;99.90
5276;DHT22;2661;50.786;12.728;2023-09-07T01:37:15;13.60;1.00
5276;DHT22;2661;50.786;12.728;2023-09-07T01:39:42;13.60;99.90
5276;DHT22;2661;50.786;12.728;2023-09-07T01:42:08;13.60;1.00
5276;DHT22;2661;50.786;12.728;2023-09-07T01:44:35;13.60;1.00
5276;DHT22;2661;50.786;12.728;2023-09-07T01:47:02;13.60;99.90
5276;DHT22;2661;50.786;12.728;2023-09-07T01:49:29;13.60;1.00
5276;DHT22;2661;50.786;12.728;2023-09-07T01:51:56;13.60;1.00
5276;DHT22;2661;50.786;12.728;2023-09-07T01:54:23;13.60;1.00
5276;DHT22;2661;50.786;12.728;2023-09-07T01:56:50;13.60;1.00
5276;DHT22;2661;50.786;12.728;2023-09-07T01:59:17;13.60;1.00
5276;DHT22;2661;50.786;12.728;2023-09-07T02:01:43;13.60;99.90
5276;DHT22;2661;50.786;12.728;2023-09-07T02:04:10;13.60;1.00
5276;DHT22;2661;50.786;12.728;2023-09-07T02:06:37;13.60;99.90
5276;DHT22;2661;50.786;12.728;2023-09-07T02:09:03;13.60;1.00
5276;DHT22;2661;50.786;12.728;2023-09-07T02:11:31;13.70;99.90
5276;DHT22;2661;50.786;12.728;2023-09-07T02:13:57;13.70;99.90
5276;DHT22;2661;50.786;12.728;2023-09-07T02:16:24;13.70;99.90
5276;DHT22;2661;50.786;12.728;2023-09-07T02:18:50;13.70;99.90
5276;DHT22;2661;50.786;12.728;2023-09-07T02:21:27;13.70;99.90
5276;DHT22;2661;50.786;12.728;2023-09-07T02:23:53;13.70;99.90
5276;DHT22;2661;50.786;12.728;2023-09-07T02:26:20;13.80;99.90
5276;DHT22;2661;50.786;12.728;2023-09-07T02:28:46;13.80;99.90
5276;DHT22;2661;50.786;12.728;2023-09-07T02:31:13;13.80;99.90
5276;DHT22;2661;50.786;12.728;2023-09-07T02:33:40;13.80;99.90
5276;DHT22;2661;50.786;12.728;2023-09-07T02:36:06;13.80;99.90
5276;DHT22;2661;50.786;12.728;2023-09-07T02:38:33;13.90;99.90
5276;DHT22;2661;50.786;12.728;2023-09-07T02:41:00;13.90;99.90
5276;DHT22;2661;50.786;12.728;2023-09-07T02:43:28;13.90;99.90
5276;DHT22;2661;50.786;12.728;2023-09-07T02:45:55;13.90;99.90
5276;DHT22;2661;50.786;12.728;2023-09-07T02:48:21;13.90;99.90
5276;DHT22;2661;50.786;12.728;2023-09-07T02:50:48;13.90;99.90
5276;DHT22;2661;50.786;12.728;2023-09-07T02:53:17;13.90;99.90
5276;DHT22;2661;50.786;12.728;2023-09-07T02:55:43;13.80;99.90
5276;DHT22;2661;50.786;12.728;2023-09-07T02:58:10;13.80;99.90
5276;DHT22;2661;50.786;12.728;2023-09-07T03:00:41;13.70;99.90
5276;DHT22;2661;50.786;12.728;2023-09-07T03:03:08;13.70;99.90
5276;DHT22;2661;50.786;12.728;2023-09-07T03:05:35;13.70;99.90
5276;DHT22;2661;50.786;12.728;2023-09-07T03:08:01;13.70;99.90
5276;DHT22;2661;50.786;12.728;2023-09-07T03:10:29;13.70;99.90
5276;DHT22;2661;50.786;12.728;2023-09-07T03:12:56;13.70;99.90
5276;DHT22;2661;50.786;12.728;2023-09-07T03:15:23;13.70;99.90
5276;DHT22;2661;50.786;12.728;2023-09-07T03:17:49;13.80;99.90
5276;DHT22;2661;50.786;12.728;2023-09-07T03:20:16;13.80;99.90
5276;DHT22;2661;50.786;12.728;2023-09-07T03:22:43;13.80;99.90
5276;DHT22;2661;50.786;12.728;2023-09-07T03:25:10;13.80;99.90
5276;DHT22;2661;50.786;12.728;2023-09-07T03:27:37;13.90;99.90
5276;DHT22;2661;50.786;12.728;2023-09-07T03:30:04;13.90;1.00
5276;DHT22;2661;50.786;12.728;2023-09-07T03:32:32;13.80;99.90
5276;DHT22;2661;50.786;12.728;2023-09-07T03:35:00;13.80;1.00
5276;DHT22;2661;50.786;12.728;2023-09-07T03:37:29;13.80;1.00
5276;DHT22;2661;50.786;12.728;2023-09-07T03:39:56;13.80;1.00
5276;DHT22;2661;50.786;12.728;2023-09-07T03:42:23;13.80;1.00
5276;DHT22;2661;50.786;12.728;2023-09-07T03:44:49;13.80;1.00
5276;DHT22;2661;50.786;12.728;2023-09-07T03:47:16;13.80;99.90
5276;DHT22;2661;50.786;12.728;2023-09-07T03:49:43;13.90;99.90
5276;DHT22;2661;50.786;12.728;2023-09-07T03:52:09;13.90;99.90
5276;DHT22;2661;50.786;12.728;2023-09-07T03:54:36;13.90;99.90
5276;DHT22;2661;50.786;12.728;2023-09-07T03:57:03;13.90;99.90
5276;DHT22;2661;50.786;12.728;2023-09-07T03:59:29;13.90;1.00
5276;DHT22;2661;50.786;12.728;2023-09-07T04:01:56;13.90;1.00
5276;DHT22;2661;50.786;12.728;2023-09-07T04:04:23;13.90;1.00
5276;DHT22;2661;50.786;12.728;2023-09-07T04:06:49;14.00;1.00
5276;DHT22;2661;50.786;12.728;2023-09-07T04:09:16;13.90;99.90
5276;DHT22;2661;50.786;12.728;2023-09-07T04:11:43;13.90;1.00
5276;DHT22;2661;50.786;12.728;2023-09-07T04:14:10;13.90;99.90
5276;DHT22;2661;50.786;12.728;2023-09-07T04:16:36;13.90;99.90
5276;DHT22;2661;50.786;12.728;2023-09-07T04:19:07;13.80;1.00
5276;DHT22;2661;50.786;12.728;2023-09-07T04:21:35;13.70;1.00
5276;DHT22;2661;50.786;12.728;2023-09-07T04:24:02;13.70;1.00
5276;DHT22;2661;50.786;12.728;2023-09-07T04:26:29;13.70;99.90
5276;DHT22;2661;50.786;12.728;2023-09-07T04:28:55;13.60;1.00
5276;DHT22;2661;50.786;12.728;2023-09-07T04:31:22;13.50;1.00
5276;DHT22;2661;50.786;12.728;2023-09-07T04:33:51;13.50;1.00
5276;DHT22;2661;50.786;12.728;2023-09-07T04:36:17;13.50;1.00
5276;DHT22;2661;50.786;12.728;2023-09-07T04:38:44;13.40;1.00
5276;DHT22;2661;50.786;12.728;2023-09-07T04:41:11;13.40;1.00
5276;DHT22;2661;50.786;12.728;2023-09-07T04:43:39;13.30;99.90
5276;DHT22;2661;50.786;12.728;2023-09-07T04:46:12;13.30;1.00
5276;DHT22;2661;50.786;12.728;2023-09-07T04:48:39;13.20;1.00
5276;DHT22;2661;50.786;12.728;2023-09-07T04:51:08;13.20;1.00
5276;DHT22;2661;50.786;12.728;2023-09-07T04:53:36;13.20;99.90
5276;DHT22;2661;50.786;12.728;2023-09-07T04:56:03;13.20;1.00
5276;DHT22;2661;50.786;12.728;2023-09-07T04:58:30;13.20;1.00
5276;DHT22;2661;50.786;12.728;2023-09-07T05:01:01;13.20;1.00
5276;DHT22;2661;50.786;12.728;2023-09-07T05:03:28;13.20;1.00
5276;DHT22;2661;50.786;12.728;2023-09-07T05:05:55;13.20;1.00
5276;DHT22;2661;50.786;12.728;2023-09-07T05:08:23;13.20;1.00
5276;DHT22;2661;50.786;12.728;2023-09-07T05:10:54;13.20;1.00
5276;DHT22;2661;50.786;12.728;2023-09-07T05:13:22;13.20;1.00
5276;DHT22;2661;50.786;12.728;2023-09-07T05:15:49;13.20;1.00
5276;DHT22;2661;50.786;12.728;2023-09-07T05:18:16;13.20;1.00
5276;DHT22;2661;50.786;12.728;2023-09-07T05:20:43;13.30;1.00
5276;DHT22;2661;50.786;12.728;2023-09-07T05:23:15;13.30;1.00
5276;DHT22;2661;50.786;12.728;2023-09-07T05:25:51;13.30;1.00
5276;DHT22;2661;50.786;12.728;2023-09-07T05:28:19;13.40;1.00
5276;DHT22;2661;50.786;12.728;2023-09-07T05:30:46;13.40;1.00
5276;DHT22;2661;50.786;12.728;2023-09-07T05:33:14;13.40;1.00
5276;DHT22;2661;50.786;12.728;2023-09-07T05:35:41;13.50;1.00
5276;DHT22;2661;50.786;12.728;2023-09-07T05:38:08;13.50;1.00
5276;DHT22;2661;50.786;12.728;2023-09-07T05:40:36;13.60;1.00
5276;DHT22;2661;50.786;12.728;2023-09-07T05:43:03;13.60;1.00
5276;DHT22;2661;50.786;12.728;2023-09-07T05:45:30;13.70;1.00
5276;DHT22;2661;50.786;12.728;2023-09-07T05:47:58;13.80;1.00
5276;DHT22;2661;50.786;12.728;2023-09-07T05:50:24;13.80;1.00
5276;DHT22;2661;50.786;12.728;2023-09-07T05:52:51;13.90;1.00
5276;DHT22;2661;50.786;12.728;2023-09-07T05:55:17;13.90;1.00
5276;DHT22;2661;50.786;12.728;2023-09-07T05:57:44;14.00;1.00
5276;DHT22;2661;50.786;12.728;2023-09-07T06:00:12;14.10;1.00
5276;DHT22;2661;50.786;12.728;2023-09-07T06:02:39;14.20;1.00
5276;DHT22;2661;50.786;12.728;2023-09-07T06:05:06;14.30;1.00
5276;DHT22;2661;50.786;12.728;2023-09-07T06:07:34;14.50;1.00
5276;DHT22;2661;50.786;12.728;2023-09-07T06:10:01;14.60;1.00
5276;DHT22;2661;50.786;12.728;2023-09-07T06:12:28;14.80;1.00
5276;DHT22;2661;50.786;12.728;2023-09-07T06:14:54;14.90;99.90
5276;DHT22;2661;50.786;12.728;2023-09-07T06:17:21;15.10;1.00
5276;DHT22;2661;50.786;12.728;2023-09-07T06:19:48;15.20;1.00
5276;DHT22;2661;50.786;12.728;2023-09-07T06:22:15;15.20;99.90
5276;DHT22;2661;50.786;12.728;2023-09-07T06:24:41;15.30;1.00
5276;DHT22;2661;50.786;12.728;2023-09-07T06:27:08;15.40;1.00
5276;DHT22;2661;50.786;12.728;2023-09-07T06:29:35;15.40;1.00
5276;DHT22;2661;50.786;12.728;2023-09-07T06:32:01;15.50;1.00
5276;DHT22;2661;50.786;12.728;2023-09-07T06:34:28;15.60;1.00
5276;DHT22;2661;50.786;12.728;2023-09-07T06:36:55;15.70;1.00
5276;DHT22;2661;50.786;12.728;2023-09-07T06:39:27;15.80;1.00
5276;DHT22;2661;50.786;12.728;2023-09-07T06:41:53;15.80;1.00
5276;DHT22;2661;50.786;12.728;2023-09-07T06:44:20;15.90;1.00
5276;DHT22;2661;50.786;12.728;2023-09-07T06:46:46;16.00;1.00
5276;DHT22;2661;50.786;12.728;2023-09-07T06:49:13;16.00;1.00
5276;DHT22;2661;50.786;12.728;2023-09-07T06:51:40;16.20;1.00
5276;DHT22;2661;50.786;12.728;2023-09-07T06:54:06;16.20;1.00
5276;DHT22;2661;50.786;12.728;2023-09-07T06:56:33;16.30;1.00
5276;DHT22;2661;50.786;12.728;2023-09-07T06:59:01;16.30;1.00
5276;DHT22;2661;50.786;12.728;2023-09-07T07:01:27;16.40;1.00
5276;DHT22;2661;50.786;12.728;2023-09-07T07:03:54;16.40;1.00
5276;DHT22;2661;50.786;12.728;2023-09-07T07:06:23;16.50;1.00
5276;DHT22;2661;50.786;12.728;2023-09-07T07:08:51;16.50;1.00
5276;DHT22;2661;50.786;12.728;2023-09-07T07:11:17;16.60;1.00
5276;DHT22;2661;50.786;12.728;2023-09-07T07:13:44;16.70;99.90
5276;DHT22;2661;50.786;12.728;2023-09-07T07:16:11;16.70;1.00
5276;DHT22;2661;50.786;12.728;2023-09-07T07:18:37;16.80;1.00
5276;DHT22;2661;50.786;12.728;2023-09-07T07:21:19;16.90;1.00
5276;DHT22;2661;50.786;12.728;2023-09-07T07:23:46;17.00;1.00
5276;DHT22;2661;50.786;12.728;2023-09-07T07:26:13;17.10;1.00
5276;DHT22;2661;50.786;12.728;2023-09-07T07:28:39;17.20;1.00
5276;DHT22;2661;50.786;12.728;2023-09-07T07:31:18;17.20;1.00
5276;DHT22;2661;50.786;12.728;2023-09-07T07:33:45;17.30;1.00
5276;DHT22;2661;50.786;12.728;2023-09-07T07:36:13;17.40;1.00
5276;DHT22;2661;50.786;12.728;2023-09-07T07:38:40;17.50;1.00
5276;DHT22;2661;50.786;12.728;2023-09-07T07:41:07;17.50;1.00
5276;DHT22;2661;50.786;12.728;2023-09-07T07:43:36;17.60;1.00
5276;DHT22;2661;50.786;12.728;2023-09-07T07:46:02;17.70;1.00
5276;DHT22;2661;50.786;12.728;2023-09-07T07:48:29;17.70;1.00
5276;DHT22;2661;50.786;12.728;2023-09-07T07:50:56;17.80;1.00
5276;DHT22;2661;50.786;12.728;2023-09-07T07:53:23;17.90;1.00
5276;DHT22;2661;50.786;12.728;2023-09-07T07:55:50;17.90;1.00
5276;DHT22;2661;50.786;12.728;2023-09-07T07:58:17;18.00;1.00
5276;DHT22;2661;50.786;12.728;2023-09-07T08:00:43;18.00;1.00
5276;DHT22;2661;50.786;12.728;2023-09-07T08:03:14;18.10;1.00
5276;DHT22;2661;50.786;12.728;2023-09-07T08:05:41;18.20;1.00
5276;DHT22;2661;50.786;12.728;2023-09-07T08:08:09;18.30;1.00
5276;DHT22;2661;50.786;12.728;2023-09-07T08:10:36;18.40;1.00
5276;DHT22;2661;50.786;12.728;2023-09-07T08:13:06;18.40;1.00
5276;DHT22;2661;50.786;12.728;2023-09-07T08:15:32;18.50;1.00
5276;DHT22;2661;50.786;12.728;2023-09-07T08:17:59;18.50;1.00
5276;DHT22;2661;50.786;12.728;2023-09-07T08:20:26;18.60;1.00
5276;DHT22;2661;50.786;12.728;2023-09-07T08:22:53;18.60;1.00
5276;DHT22;2661;50.786;12.728;2023-09-07T08:25:20;18.70;1.00
5276;DHT22;2661;50.786;12.728;2023-09-07T08:27:47;18.80;1.00
5276;DHT22;2661;50.786;12.728;2023-09-07T08:30:15;18.90;1.00
5276;DHT22;2661;50.786;12.728;2023-09-07T08:32:45;19.00;1.00
5276;DHT22;2661;50.786;12.728;2023-09-07T08:35:13;19.00;1.00
5276;DHT22;2661;50.786;12.728;2023-09-07T08:37:40;19.00;1.00
5276;DHT22;2661;50.786;12.728;2023-09-07T08:40:07;19.20;1.00
5276;DHT22;2661;50.786;12.728;2023-09-07T08:42:40;19.30;1.00
5276;DHT22;2661;50.786;12.728;2023-09-07T08:45:08;19.40;1.00
5276;DHT22;2661;50.786;12.728;2023-09-07T08:47:36;19.40;1.00
5276;DHT22;2661;50.786;12.728;2023-09-07T08:50:06;19.40;1.00
5276;DHT22;2661;50.786;12.728;2023-09-07T08:52:36;19.60;1.00
5276;DHT22;2661;50.786;12.728;2023-09-07T08:55:03;19.80;1.00
5276;DHT22;2661;50.786;12.728;2023-09-07T08:57:31;20.10;1.00
5276;DHT22;2661;50.786;12.728;2023-09-07T08:59:58;20.30;1.00
5276;DHT22;2661;50.786;12.728;2023-09-07T09:02:25;20.40;1.00
5276;DHT22;2661;50.786;12.728;2023-09-07T09:04:52;20.50;1.00
5276;DHT22;2661;50.786;12.728;2023-09-07T09:07:20;20.50;1.00
5276;DHT22;2661;50.786;12.728;2023-09-07T09:09:48;20.60;1.00
5276;DHT22;2661;50.786;12.728;2023-09-07T09:12:16;20.70;1.00
5276;DHT22;2661;50.786;12.728;2023-09-07T09:14:44;20.70;1.00
5276;DHT22;2661;50.786;12.728;2023-09-07T09:17:12;20.80;1.00
5276;DHT22;2661;50.786;12.728;2023-09-07T09:19:39;20.90;1.00
5276;DHT22;2661;50.786;12.728;2023-09-07T09:22:06;21.10;1.00
5276;DHT22;2661;50.786;12.728;2023-09-07T09:24:33;20.90;1.00
5276;DHT22;2661;50.786;12.728;2023-09-07T09:27:01;20.90;1.00
5276;DHT22;2661;50.786;12.728;2023-09-07T09:29:27;20.90;1.00
5276;DHT22;2661;50.786;12.728;2023-09-07T09:31:54;20.90;1.00
5276;DHT22;2661;50.786;12.728;2023-09-07T09:34:21;21.00;1.00
5276;DHT22;2661;50.786;12.728;2023-09-07T09:36:47;20.90;1.00
5276;DHT22;2661;50.786;12.728;2023-09-07T09:39:21;20.80;1.00
5276;DHT22;2661;50.786;12.728;2023-09-07T09:41:49;21.00;1.00
5276;DHT22;2661;50.786;12.728;2023-09-07T09:44:16;21.10;1.00
5276;DHT22;2661;50.786;12.728;2023-09-07T09:46:43;21.20;1.00
5276;DHT22;2661;50.786;12.728;2023-09-07T09:49:10;21.10;1.00
5276;DHT22;2661;50.786;12.728;2023-09-07T09:51:39;21.00;1.00
5276;DHT22;2661;50.786;12.728;2023-09-07T09:54:08;21.10;1.00
5276;DHT22;2661;50.786;12.728;2023-09-07T09:56:35;21.20;1.00
5276;DHT22;2661;50.786;12.728;2023-09-07T09:59:02;21.20;1.00
5276;DHT22;2661;50.786;12.728;2023-09-07T10:01:29;21.50;1.00
5276;DHT22;2661;50.786;12.728;2023-09-07T10:03:56;21.60;1.00
5276;DHT22;2661;50.786;12.728;2023-09-07T10:06:28;21.60;1.00
5276;DHT22;2661;50.786;12.728;2023-09-07T10:08:58;21.70;1.00
5276;DHT22;2661;50.786;12.728;2023-09-07T10:11:32;21.60;1.00
5276;DHT22;2661;50.786;12.728;2023-09-07T10:13:59;21.70;1.00
5276;DHT22;2661;50.786;12.728;2023-09-07T10:16:26;21.60;1.00
5276;DHT22;2661;50.786;12.728;2023-09-07T10:18:55;21.60;1.00
5276;DHT22;2661;50.786;12.728;2023-09-07T10:21:25;21.50;1.00
5276;DHT22;2661;50.786;12.728;2023-09-07T10:23:53;21.50;1.00
5276;DHT22;2661;50.786;12.728;2023-09-07T10:26:20;21.40;1.00
5276;DHT22;2661;50.786;12.728;2023-09-07T10:28:59;21.60;1.00
5276;DHT22;2661;50.786;12.728;2023-09-07T10:31:27;21.70;1.00
5276;DHT22;2661;50.786;12.728;2023-09-07T10:34:13;21.70;1.00
5276;DHT22;2661;50.786;12.728;2023-09-07T10:36:40;21.80;1.00
5276;DHT22;2661;50.786;12.728;2023-09-07T10:39:07;21.90;1.00
5276;DHT22;2661;50.786;12.728;2023-09-07T10:41:43;21.90;1.00
5276;DHT22;2661;50.786;12.728;2023-09-07T10:44:10;22.00;1.00
5276;DHT22;2661;50.786;12.728;2023-09-07T10:46:37;22.10;1.00
5276;DHT22;2661;50.786;12.728;2023-09-07T10:49:08;22.20;1.00
5276;DHT22;2661;50.786;12.728;2023-09-07T10:51:44;22.10;1.00
5276;DHT22;2661;50.786;12.728;2023-09-07T10:54:18;22.10;1.00
5276;DHT22;2661;50.786;12.728;2023-09-07T10:56:45;22.10;1.00
5276;DHT22;2661;50.786;12.728;2023-09-07T10:59:13;22.10;1.00
5276;DHT22;2661;50.786;12.728;2023-09-07T11:01:39;22.10;1.00
5276;DHT22;2661;50.786;12.728;2023-09-07T11:04:06;22.20;1.00
5276;DHT22;2661;50.786;12.728;2023-09-07T11:06:35;22.10;1.00
5276;DHT22;2661;50.786;12.728;2023-09-07T11:09:02;22.10;1.00
5276;DHT22;2661;50.786;12.728;2023-09-07T11:11:34;22.10;1.00
5276;DHT22;2661;50.786;12.728;2023-09-07T11:14:02;22.10;99.90
5276;DHT22;2661;50.786;12.728;2023-09-07T11:16:29;22.10;1.00
5276;DHT22;2661;50.786;12.728;2023-09-07T11:18:55;22.10;1.00
5276;DHT22;2661;50.786;12.728;2023-09-07T11:21:22;22.00;1.00
5276;DHT22;2661;50.786;12.728;2023-09-07T11:23:50;22.10;1.00
5276;DHT22;2661;50.786;12.728;2023-09-07T11:26:17;22.20;1.00
5276;DHT22;2661;50.786;12.728;2023-09-07T11:28:47;22.20;1.00
5276;DHT22;2661;50.786;12.728;2023-09-07T11:31:17;22.10;1.00
5276;DHT22;2661;50.786;12.728;2023-09-07T11:33:44;22.10;1.00
5276;DHT22;2661;50.786;12.728;2023-09-07T11:36:12;22.10;1.00
5276;DHT22;2661;50.786;12.728;2023-09-07T11:38:42;22.20;1.00
5276;DHT22;2661;50.786;12.728;2023-09-07T11:41:08;22.20;1.00
5276;DHT22;2661;50.786;12.728;2023-09-07T11:43:35;22.10;1.00
5276;DHT22;2661;50.786;12.728;2023-09-07T11:46:02;22.10;1.00
5276;DHT22;2661;50.786;12.728;2023-09-07T11:48:30;22.10;1.00
5276;DHT22;2661;50.786;12.728;2023-09-07T11:50:59;22.30;1.00
5276;DHT22;2661;50.786;12.728;2023-09-07T11:53:25;22.40;1.00
5276;DHT22;2661;50.786;12.728;2023-09-07T11:55:52;22.30;1.00
5276;DHT22;2661;50.786;12.728;2023-09-07T11:58:18;22.30;1.00
5276;DHT22;2661;50.786;12.728;2023-09-07T12:00:46;22.40;1.00
5276;DHT22;2661;50.786;12.728;2023-09-07T12:03:12;22.50;1.00
5276;DHT22;2661;50.786;12.728;2023-09-07T12:05:39;22.50;1.00
5276;DHT22;2661;50.786;12.728;2023-09-07T12:08:08;22.70;1.00
5276;DHT22;2661;50.786;12.728;2023-09-07T12:10:34;22.80;1.00
5276;DHT22;2661;50.786;12.728;2023-09-07T12:13:01;22.90;1.00
5276;DHT22;2661;50.786;12.728;2023-09-07T12:15:28;22.90;1.00
5276;DHT22;2661;50.786;12.728;2023-09-07T12:17:55;23.00;1.00
5276;DHT22;2661;50.786;12.728;2023-09-07T12:20:22;23.20;1.00
5276;DHT22;2661;50.786;12.728;2023-09-07T12:22:49;23.10;1.00
5276;DHT22;2661;50.786;12.728;2023-09-07T12:25:15;23.10;1.00
5276;DHT22;2661;50.786;12.728;2023-09-07T12:27:45;23.10;1.00
5276;DHT22;2661;50.786;12.728;2023-09-07T12:30:19;23.30;1.00
5276;DHT22;2661;50.786;12.728;2023-09-07T12:32:47;23.10;1.00
5276;DHT22;2661;50.786;12.728;2023-09-07T12:35:14;23.20;1.00
5276;DHT22;2661;50.786;12.728;2023-09-07T12:37:42;23.20;1.00
5276;DHT22;2661;50.786;12.728;2023-09-07T12:40:08;23.30;1.00
5276;DHT22;2661;50.786;12.728;2023-09-07T12:42:40;23.40;1.00
5276;DHT22;2661;50.786;12.728;2023-09-07T12:45:08;23.40;1.00
5276;DHT22;2661;50.786;12.728;2023-09-07T12:47:35;23.50;1.00
5276;DHT22;2661;50.786;12.728;2023-09-07T12:50:02;23.60;1.00
5276;DHT22;2661;50.786;12.728;2023-09-07T12:52:29;23.50;1.00
5276;DHT22;2661;50.786;12.728;2023-09-07T12:54:58;23.50;1.00
5276;DHT22;2661;50.786;12.728;2023-09-07T12:57:25;23.40;1.00
5276;DHT22;2661;50.786;12.728;2023-09-07T12:59:52;23.30;1.00
5276;DHT22;2661;50.786;12.728;2023-09-07T13:02:18;23.40;1.00
5276;DHT22;2661;50.786;12.728;2023-09-07T13:04:45;23.40;1.00
5276;DHT22;2661;50.786;12.728;2023-09-07T13:07:12;23.40;1.00
5276;DHT22;2661;50.786;12.728;2023-09-07T13:09:38;23.50;1.00
5276;DHT22;2661;50.786;12.728;2023-09-07T13:12:05;23.60;1.00
5276;DHT22;2661;50.786;12.728;2023-09-07T13:14:32;23.70;99.90
5276;DHT22;2661;50.786;12.728;2023-09-07T13:16:59;23.70;99.90
5276;DHT22;2661;50.786;12.728;2023-09-07T13:19:26;23.50;1.00
5276;DHT22;2661;50.786;12.728;2023-09-07T13:21:53;23.60;1.00
5276;DHT22;2661;50.786;12.728;2023-09-07T13:24:19;23.70;1.00
5276;DHT22;2661;50.786;12.728;2023-09-07T13:26:46;23.70;1.00
5276;DHT22;2661;50.786;12.728;2023-09-07T13:29:13;23.60;1.00
5276;DHT22;2661;50.786;12.728;2023-09-07T13:31:40;23.60;1.00
5276;DHT22;2661;50.786;12.728;2023-09-07T13:34:06;23.60;1.00
5276;DHT22;2661;50.786;12.728;2023-09-07T13:36:33;23.60;1.00
5276;DHT22;2661;50.786;12.728;2023-09-07T13:39:00;23.50;1.00
5276;DHT22;2661;50.786;12.728;2023-09-07T13:41:26;23.40;1.00
5276;DHT22;2661;50.786;12.728;2023-09-07T13:43:53;23.50;1.00
5276;DHT22;2661;50.786;12.728;2023-09-07T13:46:20;23.40;1.00
5276;DHT22;2661;50.786;12.728;2023-09-07T13:48:47;23.20;1.00
5276;DHT22;2661;50.786;12.728;2023-09-07T13:51:13;23.40;1.00
5276;DHT22;2661;50.786;12.728;2023-09-07T13:53:40;23.50;1.00
5276;DHT22;2661;50.786;12.728;2023-09-07T13:56:07;23.50;1.00
5276;DHT22;2661;50.786;12.728;2023-09-07T13:58:33;23.40;1.00
5276;DHT22;2661;50.786;12.728;2023-09-07T14:01:00;23.40;1.00
5276;DHT22;2661;50.786;12.728;2023-09-07T14:03:27;23.50;1.00
5276;DHT22;2661;50.786;12.728;2023-09-07T14:05:53;23.40;1.00
5276;DHT22;2661;50.786;12.728;2023-09-07T14:08:21;23.40;1.00
5276;DHT22;2661;50.786;12.728;2023-09-07T14:10:50;23.40;1.00
5276;DHT22;2661;50.786;12.728;2023-09-07T14:13:17;23.40;1.00
5276;DHT22;2661;50.786;12.728;2023-09-07T14:15:44;23.70;1.00
5276;DHT22;2661;50.786;12.728;2023-09-07T14:18:11;23.50;1.00
5276;DHT22;2661;50.786;12.728;2023-09-07T14:20:38;23.50;1.00
5276;DHT22;2661;50.786;12.728;2023-09-07T14:23:05;23.60;1.00
5276;DHT22;2661;50.786;12.728;2023-09-07T14:25:31;23.60;1.00
5276;DHT22;2661;50.786;12.728;2023-09-07T14:27:58;23.70;1.00
5276;DHT22;2661;50.786;12.728;2023-09-07T14:30:25;23.70;1.00
5276;DHT22;2661;50.786;12.728;2023-09-07T14:32:51;23.70;1.00
5276;DHT22;2661;50.786;12.728;2023-09-07T14:35:18;23.80;1.00
5276;DHT22;2661;50.786;12.728;2023-09-07T14:37:45;23.70;1.00
5276;DHT22;2661;50.786;12.728;2023-09-07T14:40:11;23.70;1.00
5276;DHT22;2661;50.786;12.728;2023-09-07T14:42:39;23.80;1.00
5276;DHT22;2661;50.786;12.728;2023-09-07T14:45:05;23.80;1.00
5276;DHT22;2661;50.786;12.728;2023-09-07T14:47:33;24.00;1.00
5276;DHT22;2661;50.786;12.728;2023-09-07T14:49:59;23.90;1.00
5276;DHT22;2661;50.786;12.728;2023-09-07T14:52:26;23.90;1.00
5276;DHT22;2661;50.786;12.728;2023-09-07T14:54:53;23.70;1.00
5276;DHT22;2661;50.786;12.728;2023-09-07T14:57:20;23.60;1.00
5276;DHT22;2661;50.786;12.728;2023-09-07T14:59:47;23.40;1.00
5276;DHT22;2661;50.786;12.728;2023-09-07T15:02:13;23.40;1.00
5276;DHT22;2661;50.786;12.728;2023-09-07T15:04:40;23.40;1.00
5276;DHT22;2661;50.786;12.728;2023-09-07T15:07:09;23.40;1.00
5276;DHT22;2661;50.786;12.728;2023-09-07T15:09:35;23.30;1.00
5276;DHT22;2661;50.786;12.728;2023-09-07T15:12:02;23.20;1.00
5276;DHT22;2661;50.786;12.728;2023-09-07T15:14:29;23.10;1.00
5276;DHT22;2661;50.786;12.728;2023-09-07T15:16:56;23.10;1.00
5276;DHT22;2661;50.786;12.728;2023-09-07T15:19:22;23.10;1.00
5276;DHT22;2661;50.786;12.728;2023-09-07T15:21:49;23.00;1.00
5276;DHT22;2661;50.786;12.728;2023-09-07T15:24:17;22.90;1.00
5276;DHT22;2661;50.786;12.728;2023-09-07T15:26:44;22.90;1.00
5276;DHT22;2661;50.786;12.728;2023-09-07T15:29:11;22.80;1.00
5276;DHT22;2661;50.786;12.728;2023-09-07T15:31:38;22.80;1.00
5276;DHT22;2661;50.786;12.728;2023-09-07T15:34:08;22.80;1.00
5276;DHT22;2661;50.786;12.728;2023-09-07T15:36:35;22.80;1.00
5276;DHT22;2661;50.786;12.728;2023-09-07T15:39:02;22.70;1.00
5276;DHT22;2661;50.786;12.728;2023-09-07T15:41:28;22.60;1.00
5276;DHT22;2661;50.786;12.728;2023-09-07T15:43:55;22.50;1.00
5276;DHT22;2661;50.786;12.728;2023-09-07T15:46:22;22.50;1.00
5276;DHT22;2661;50.786;12.728;2023-09-07T15:48:51;22.50;1.00
5276;DHT22;2661;50.786;12.728;2023-09-07T15:51:18;22.40;1.00
5276;DHT22;2661;50.786;12.728;2023-09-07T15:53:45;22.40;1.00
5276;DHT22;2661;50.786;12.728;2023-09-07T15:56:12;22.40;1.00
5276;DHT22;2661;50.786;12.728;2023-09-07T15:58:38;22.40;1.00